Auburn, Nebraska
Current Conditions -  °F | °C
As of 5:15 AM on Wednesday 26 Nov 2014 (Local Time) from KAFK Reporting Station
Broken Clouds Broken Clouds  
Wind Chill: 26°   Ceiling: 7500
Heat Index: 36°   Visibility: 10mi
Dew Point: 30°   Wind: 15mph
Humidity: 80%   Direction: 290°WNW
Pressure: 29.87"   Gusts: NA
Location:  40.39°N, 95.84°W
Report Text: KAFK 261115Z AUTO 29013KT 10SM BKN075 02/M01 A2987 RMK AO2 T00211010
Loading
Personal Weather Stations






























Interactive Weather Map New forecast layout! Learn more

10-Day Weather Forecast

Advertisements
Track Severe Weather on mobile